sensor_id;sensor_type;location;lat;lon;timestamp;pressure;altitude;pressure_sealevel;temperature;humidity
28797;BME280;24974;54.444;18.560;2023-09-07T00:01:35;102368.16;;;22.52;66.26
28797;BME280;24974;54.444;18.560;2023-09-07T00:04:07;102360.44;;;22.61;66.21
28797;BME280;24974;54.444;18.560;2023-09-07T00:06:37;102360.09;;;22.26;66.96
28797;BME280;24974;54.444;18.560;2023-09-07T00:09:08;102367.09;;;22.20;67.05
28797;BME280;24974;54.444;18.560;2023-09-07T00:11:41;102363.88;;;22.30;66.84
28797;BME280;24974;54.444;18.560;2023-09-07T00:14:12;102368.16;;;22.16;67.42
28797;BME280;24974;54.444;18.560;2023-09-07T00:16:43;102362.88;;;21.69;69.02
28797;BME280;24974;54.444;18.560;2023-09-07T00:19:14;102364.88;;;22.14;67.61
28797;BME280;24974;54.444;18.560;2023-09-07T00:21:45;102376.41;;;22.12;67.61
28797;BME280;24974;54.444;18.560;2023-09-07T00:24:16;102371.94;;;21.99;67.94
28797;BME280;24974;54.444;18.560;2023-09-07T00:26:47;102377.13;;;22.09;67.66
28797;BME280;24974;54.444;18.560;2023-09-07T00:29:17;102375.50;;;22.45;66.46
28797;BME280;24974;54.444;18.560;2023-09-07T00:31:49;102370.50;;;22.50;65.99
28797;BME280;24974;54.444;18.560;2023-09-07T00:34:20;102375.84;;;22.19;67.20
28797;BME280;24974;54.444;18.560;2023-09-07T00:36:51;102375.38;;;22.29;66.35
28797;BME280;24974;54.444;18.560;2023-09-07T00:39:22;102367.09;;;22.20;66.82
28797;BME280;24974;54.444;18.560;2023-09-07T00:41:52;102378.41;;;22.12;67.43
28797;BME280;24974;54.444;18.560;2023-09-07T00:44:23;102377.72;;;22.15;67.35
28797;BME280;24974;54.444;18.560;2023-09-07T00:46:56;102378.19;;;22.53;65.79
28797;BME280;24974;54.444;18.560;2023-09-07T00:49:28;102375.97;;;22.10;67.02
28797;BME280;24974;54.444;18.560;2023-09-07T00:51:59;102373.53;;;22.45;65.94
28797;BME280;24974;54.444;18.560;2023-09-07T00:54:30;102374.69;;;22.44;65.96
28797;BME280;24974;54.444;18.560;2023-09-07T00:57:01;102373.28;;;22.26;66.45
28797;BME280;24974;54.444;18.560;2023-09-07T00:59:34;102378.44;;;22.36;66.13
28797;BME280;24974;54.444;18.560;2023-09-07T01:02:05;102379.03;;;22.54;65.80
28797;BME280;24974;54.444;18.560;2023-09-07T01:04:36;102376.59;;;22.40;66.39
28797;BME280;24974;54.444;18.560;2023-09-07T01:07:32;102375.06;;;22.67;65.41
28797;BME280;24974;54.444;18.560;2023-09-07T01:10:06;102374.13;;;22.51;65.94
28797;BME280;24974;54.444;18.560;2023-09-07T01:12:39;102375.19;;;22.58;65.86
28797;BME280;24974;54.444;18.560;2023-09-07T01:15:10;102375.16;;;22.83;64.91
28797;BME280;24974;54.444;18.560;2023-09-07T01:17:41;102374.94;;;22.76;65.67
28797;BME280;24974;54.444;18.560;2023-09-07T01:20:13;102383.31;;;23.00;65.36
28797;BME280;24974;54.444;18.560;2023-09-07T01:22:49;102388.38;;;22.95;65.83
28797;BME280;24974;54.444;18.560;2023-09-07T01:25:20;102381.69;;;22.99;65.39
28797;BME280;24974;54.444;18.560;2023-09-07T01:27:52;102380.00;;;23.23;64.79
28797;BME280;24974;54.444;18.560;2023-09-07T01:30:27;102378.06;;;23.11;65.37
28797;BME280;24974;54.444;18.560;2023-09-07T01:32:58;102390.31;;;23.19;64.90
28797;BME280;24974;54.444;18.560;2023-09-07T01:35:30;102380.88;;;23.11;65.18
28797;BME280;24974;54.444;18.560;2023-09-07T01:38:02;102379.66;;;23.24;65.02
28797;BME280;24974;54.444;18.560;2023-09-07T01:40:32;102376.47;;;23.26;64.66
28797;BME280;24974;54.444;18.560;2023-09-07T01:43:03;102381.25;;;23.37;64.24
28797;BME280;24974;54.444;18.560;2023-09-07T01:45:34;102378.91;;;23.39;64.41
28797;BME280;24974;54.444;18.560;2023-09-07T01:48:11;102378.28;;;23.18;65.45
28797;BME280;24974;54.444;18.560;2023-09-07T01:50:42;102385.78;;;23.42;64.87
28797;BME280;24974;54.444;18.560;2023-09-07T01:53:13;102392.72;;;23.32;65.23
28797;BME280;24974;54.444;18.560;2023-09-07T01:55:44;102385.25;;;23.64;65.01
28797;BME280;24974;54.444;18.560;2023-09-07T01:58:15;102385.31;;;23.12;66.70
28797;BME280;24974;54.444;18.560;2023-09-07T02:00:46;102387.06;;;23.44;66.29
28797;BME280;24974;54.444;18.560;2023-09-07T02:03:17;102387.06;;;23.44;66.13
28797;BME280;24974;54.444;18.560;2023-09-07T02:05:48;102391.75;;;23.40;66.42
28797;BME280;24974;54.444;18.560;2023-09-07T02:08:18;102386.19;;;23.28;66.26
28797;BME280;24974;54.444;18.560;2023-09-07T02:10:49;102391.19;;;23.35;66.15
28797;BME280;24974;54.444;18.560;2023-09-07T02:13:20;102392.41;;;23.50;65.50
28797;BME280;24974;54.444;18.560;2023-09-07T02:15:51;102392.16;;;23.67;65.12
28797;BME280;24974;54.444;18.560;2023-09-07T02:18:22;102387.16;;;23.48;65.73
28797;BME280;24974;54.444;18.560;2023-09-07T02:20:53;102390.63;;;23.57;65.28
28797;BME280;24974;54.444;18.560;2023-09-07T02:23:24;102393.91;;;23.59;65.20
28797;BME280;24974;54.444;18.560;2023-09-07T02:25:55;102401.28;;;23.64;65.04
28797;BME280;24974;54.444;18.560;2023-09-07T02:28:26;102397.56;;;23.60;65.24
28797;BME280;24974;54.444;18.560;2023-09-07T02:31:05;102396.66;;;23.43;65.69
28797;BME280;24974;54.444;18.560;2023-09-07T02:33:36;102396.09;;;23.38;66.07
28797;BME280;24974;54.444;18.560;2023-09-07T02:36:08;102393.66;;;23.36;66.69
28797;BME280;24974;54.444;18.560;2023-09-07T02:38:39;102401.88;;;23.17;66.87
28797;BME280;24974;54.444;18.560;2023-09-07T02:41:10;102406.59;;;23.41;66.08
28797;BME280;24974;54.444;18.560;2023-09-07T02:43:41;102395.94;;;23.06;66.96
28797;BME280;24974;54.444;18.560;2023-09-07T02:46:12;102398.03;;;23.09;66.86
28797;BME280;24974;54.444;18.560;2023-09-07T02:48:43;102398.38;;;23.08;66.52
28797;BME280;24974;54.444;18.560;2023-09-07T02:51:14;102394.41;;;23.09;66.19
28797;BME280;24974;54.444;18.560;2023-09-07T02:53:45;102390.59;;;22.89;66.73
28797;BME280;24974;54.444;18.560;2023-09-07T02:56:16;102392.47;;;22.85;66.33
28797;BME280;24974;54.444;18.560;2023-09-07T02:58:47;102389.66;;;22.97;65.86
28797;BME280;24974;54.444;18.560;2023-09-07T03:01:19;102388.25;;;22.67;66.64
28797;BME280;24974;54.444;18.560;2023-09-07T03:03:51;102381.56;;;22.83;66.39
28797;BME280;24974;54.444;18.560;2023-09-07T03:06:23;102386.41;;;22.46;68.11
28797;BME280;24974;54.444;18.560;2023-09-07T03:08:57;102383.94;;;22.57;67.77
28797;BME280;24974;54.444;18.560;2023-09-07T03:11:28;102387.19;;;22.83;66.74
28797;BME280;24974;54.444;18.560;2023-09-07T03:14:05;102379.13;;;22.82;66.56
28797;BME280;24974;54.444;18.560;2023-09-07T03:16:36;102385.91;;;22.81;66.43
28797;BME280;24974;54.444;18.560;2023-09-07T03:19:09;102386.25;;;22.67;67.09
28797;BME280;24974;54.444;18.560;2023-09-07T03:21:40;102389.41;;;22.66;67.37
28797;BME280;24974;54.444;18.560;2023-09-07T03:24:11;102389.66;;;22.85;66.49
28797;BME280;24974;54.444;18.560;2023-09-07T03:26:42;102390.00;;;22.71;66.84
28797;BME280;24974;54.444;18.560;2023-09-07T03:29:14;102394.19;;;22.77;67.30
28797;BME280;24974;54.444;18.560;2023-09-07T03:31:45;102394.31;;;23.05;66.13
28797;BME280;24974;54.444;18.560;2023-09-07T03:34:16;102399.38;;;22.87;66.69
28797;BME280;24974;54.444;18.560;2023-09-07T03:36:47;102393.22;;;23.22;65.17
28797;BME280;24974;54.444;18.560;2023-09-07T03:39:18;102392.22;;;22.90;66.08
28797;BME280;24974;54.444;18.560;2023-09-07T03:41:53;102399.78;;;22.28;67.85
28797;BME280;24974;54.444;18.560;2023-09-07T03:44:27;102400.84;;;23.09;65.67
28797;BME280;24974;54.444;18.560;2023-09-07T03:47:00;102406.78;;;23.20;65.20
28797;BME280;24974;54.444;18.560;2023-09-07T03:49:31;102410.56;;;23.00;66.05
28797;BME280;24974;54.444;18.560;2023-09-07T03:52:02;102404.25;;;23.03;66.08
28797;BME280;24974;54.444;18.560;2023-09-07T03:54:32;102403.81;;;22.88;66.13
28797;BME280;24974;54.444;18.560;2023-09-07T03:57:04;102401.22;;;22.96;66.27
28797;BME280;24974;54.444;18.560;2023-09-07T03:59:36;102403.19;;;22.83;66.24
28797;BME280;24974;54.444;18.560;2023-09-07T04:02:07;102399.69;;;22.61;66.69
28797;BME280;24974;54.444;18.560;2023-09-07T04:04:38;102405.75;;;23.00;65.38
28797;BME280;24974;54.444;18.560;2023-09-07T04:07:09;102403.91;;;22.80;66.08
28797;BME280;24974;54.444;18.560;2023-09-07T04:09:40;102405.63;;;23.09;65.23
28797;BME280;24974;54.444;18.560;2023-09-07T04:12:11;102407.97;;;23.07;65.50
28797;BME280;24974;54.444;18.560;2023-09-07T04:14:42;102403.91;;;22.92;65.61
28797;BME280;24974;54.444;18.560;2023-09-07T04:17:15;102411.00;;;22.41;67.60
28797;BME280;24974;54.444;18.560;2023-09-07T04:19:46;102411.41;;;22.88;66.01
28797;BME280;24974;54.444;18.560;2023-09-07T04:22:17;102408.28;;;23.17;65.39
28797;BME280;24974;54.444;18.560;2023-09-07T04:24:48;102406.47;;;22.97;65.37
28797;BME280;24974;54.444;18.560;2023-09-07T04:27:20;102415.81;;;23.01;65.74
28797;BME280;24974;54.444;18.560;2023-09-07T04:29:51;102418.97;;;23.12;65.45
28797;BME280;24974;54.444;18.560;2023-09-07T04:32:22;102409.81;;;23.15;64.92
28797;BME280;24974;54.444;18.560;2023-09-07T04:34:54;102409.22;;;23.22;65.21
28797;BME280;24974;54.444;18.560;2023-09-07T04:37:26;102417.78;;;23.13;65.14
28797;BME280;24974;54.444;18.560;2023-09-07T04:39:56;102420.72;;;22.92;66.20
28797;BME280;24974;54.444;18.560;2023-09-07T04:42:28;102421.41;;;23.13;65.54
28797;BME280;24974;54.444;18.560;2023-09-07T04:44:59;102428.88;;;23.22;65.29
28797;BME280;24974;54.444;18.560;2023-09-07T04:47:30;102420.25;;;22.66;66.56
28797;BME280;24974;54.444;18.560;2023-09-07T04:50:01;102421.22;;;22.94;65.92
28797;BME280;24974;54.444;18.560;2023-09-07T04:52:32;102428.72;;;23.30;64.82
28797;BME280;24974;54.444;18.560;2023-09-07T04:55:06;102424.16;;;23.38;64.51
28797;BME280;24974;54.444;18.560;2023-09-07T04:57:39;102428.81;;;23.46;64.41
28797;BME280;24974;54.444;18.560;2023-09-07T05:00:10;102427.59;;;23.19;65.03
28797;BME280;24974;54.444;18.560;2023-09-07T05:02:41;102425.06;;;23.42;64.58
28797;BME280;24974;54.444;18.560;2023-09-07T05:05:13;102430.72;;;23.58;64.05
28797;BME280;24974;54.444;18.560;2023-09-07T05:07:44;102429.84;;;23.41;64.37
28797;BME280;24974;54.444;18.560;2023-09-07T05:10:15;102425.75;;;23.51;64.34
28797;BME280;24974;54.444;18.560;2023-09-07T05:12:47;102429.03;;;23.41;64.39
28797;BME280;24974;54.444;18.560;2023-09-07T05:15:18;102432.63;;;23.54;63.85
28797;BME280;24974;54.444;18.560;2023-09-07T05:17:49;102438.00;;;23.59;63.91
28797;BME280;24974;54.444;18.560;2023-09-07T05:20:20;102440.38;;;23.44;64.53
28797;BME280;24974;54.444;18.560;2023-09-07T05:22:53;102444.69;;;23.42;64.38
28797;BME280;24974;54.444;18.560;2023-09-07T05:25:23;102451.22;;;23.58;64.35
28797;BME280;24974;54.444;18.560;2023-09-07T05:27:54;102450.88;;;23.48;64.40
28797;BME280;24974;54.444;18.560;2023-09-07T05:30:25;102445.00;;;23.12;65.58
28797;BME280;24974;54.444;18.560;2023-09-07T05:32:56;102451.59;;;23.44;64.81
28797;BME280;24974;54.444;18.560;2023-09-07T05:35:27;102447.38;;;23.63;64.24
28797;BME280;24974;54.444;18.560;2023-09-07T05:38:04;102445.63;;;23.46;64.62
28797;BME280;24974;54.444;18.560;2023-09-07T05:40:37;102456.91;;;23.74;63.79
28797;BME280;24974;54.444;18.560;2023-09-07T05:43:08;102451.44;;;23.93;62.66
28797;BME280;24974;54.444;18.560;2023-09-07T05:45:40;102451.03;;;23.79;63.41
28797;BME280;24974;54.444;18.560;2023-09-07T05:48:13;102449.81;;;23.92;62.89
28797;BME280;24974;54.444;18.560;2023-09-07T05:50:44;102454.94;;;22.73;66.85
28797;BME280;24974;54.444;18.560;2023-09-07T05:53:16;102461.81;;;23.25;65.51
28797;BME280;24974;54.444;18.560;2023-09-07T05:55:47;102455.16;;;23.29;65.13
28797;BME280;24974;54.444;18.560;2023-09-07T05:58:18;102451.44;;;23.93;63.28
28797;BME280;24974;54.444;18.560;2023-09-07T06:00:49;102450.81;;;24.44;61.20
28797;BME280;24974;54.444;18.560;2023-09-07T06:03:20;102451.06;;;24.23;62.07
28797;BME280;24974;54.444;18.560;2023-09-07T06:05:51;102455.53;;;22.91;65.92
28797;BME280;24974;54.444;18.560;2023-09-07T06:08:22;102449.56;;;23.57;63.87
28797;BME280;24974;54.444;18.560;2023-09-07T06:10:53;102454.38;;;24.41;61.46
28797;BME280;24974;54.444;18.560;2023-09-07T06:13:24;102461.13;;;24.24;62.04
28797;BME280;24974;54.444;18.560;2023-09-07T06:15:55;102464.78;;;23.04;65.46
28797;BME280;24974;54.444;18.560;2023-09-07T06:18:26;102463.91;;;23.80;63.12
28797;BME280;24974;54.444;18.560;2023-09-07T06:20:57;102464.63;;;24.21;61.29
28797;BME280;24974;54.444;18.560;2023-09-07T06:23:28;102460.56;;;23.75;63.02
28797;BME280;24974;54.444;18.560;2023-09-07T06:25:59;102470.75;;;23.95;62.13
28797;BME280;24974;54.444;18.560;2023-09-07T06:28:32;102467.97;;;24.11;61.96
28797;BME280;24974;54.444;18.560;2023-09-07T06:31:03;102461.81;;;24.33;61.23
28797;BME280;24974;54.444;18.560;2023-09-07T06:33:34;102461.81;;;24.65;59.80
28797;BME280;24974;54.444;18.560;2023-09-07T06:36:04;102475.41;;;24.47;59.65
28797;BME280;24974;54.444;18.560;2023-09-07T06:38:36;102471.41;;;24.48;59.77
28797;BME280;24974;54.444;18.560;2023-09-07T06:41:07;102472.56;;;25.10;57.90
28797;BME280;24974;54.444;18.560;2023-09-07T06:43:41;102482.50;;;24.72;58.85
28797;BME280;24974;54.444;18.560;2023-09-07T06:46:13;102485.22;;;24.25;60.63
28797;BME280;24974;54.444;18.560;2023-09-07T06:48:44;102485.16;;;25.00;58.71
28797;BME280;24974;54.444;18.560;2023-09-07T06:51:15;102488.81;;;24.53;59.33
28797;BME280;24974;54.444;18.560;2023-09-07T06:53:46;102491.25;;;25.02;58.37
28797;BME280;24974;54.444;18.560;2023-09-07T06:56:18;102492.91;;;24.88;58.65
28797;BME280;24974;54.444;18.560;2023-09-07T06:58:49;102484.38;;;25.16;57.60
28797;BME280;24974;54.444;18.560;2023-09-07T07:01:20;102489.47;;;24.63;58.12
28797;BME280;24974;54.444;18.560;2023-09-07T07:03:52;102484.13;;;25.05;57.31
28797;BME280;24974;54.444;18.560;2023-09-07T07:06:24;102487.81;;;25.09;57.44
28797;BME280;24974;54.444;18.560;2023-09-07T07:08:55;102485.06;;;25.28;57.01
28797;BME280;24974;54.444;18.560;2023-09-07T07:11:26;102485.91;;;25.13;57.05
28797;BME280;24974;54.444;18.560;2023-09-07T07:13:57;102488.72;;;25.13;57.78
28797;BME280;24974;54.444;18.560;2023-09-07T07:16:28;102495.34;;;24.58;58.93
28797;BME280;24974;54.444;18.560;2023-09-07T07:18:59;102491.91;;;24.64;58.62
28797;BME280;24974;54.444;18.560;2023-09-07T07:21:30;102497.34;;;24.89;58.31
28797;BME280;24974;54.444;18.560;2023-09-07T07:24:01;102503.34;;;24.55;58.60
28797;BME280;24974;54.444;18.560;2023-09-07T07:26:32;102493.16;;;25.30;56.97
28797;BME280;24974;54.444;18.560;2023-09-07T07:29:03;102498.78;;;25.30;57.49
28797;BME280;24974;54.444;18.560;2023-09-07T07:31:34;102511.69;;;25.15;57.54
28797;BME280;24974;54.444;18.560;2023-09-07T07:34:05;102510.88;;;25.15;57.86
28797;BME280;24974;54.444;18.560;2023-09-07T07:36:37;102511.03;;;25.22;57.21
28797;BME280;24974;54.444;18.560;2023-09-07T07:39:08;102510.88;;;25.15;57.68
28797;BME280;24974;54.444;18.560;2023-09-07T07:41:40;102506.13;;;24.12;59.62
28797;BME280;24974;54.444;18.560;2023-09-07T07:44:11;102508.84;;;24.36;59.51
28797;BME280;24974;54.444;18.560;2023-09-07T07:46:42;102503.78;;;24.89;57.81
28797;BME280;24974;54.444;18.560;2023-09-07T07:49:13;102497.06;;;24.62;58.73
28797;BME280;24974;54.444;18.560;2023-09-07T07:51:45;102505.50;;;24.62;59.18
28797;BME280;24974;54.444;18.560;2023-09-07T07:54:16;102511.41;;;24.89;58.23
28797;BME280;24974;54.444;18.560;2023-09-07T07:56:47;102515.03;;;24.89;58.39
28797;BME280;24974;54.444;18.560;2023-09-07T07:59:18;102510.81;;;25.46;56.82
28797;BME280;24974;54.444;18.560;2023-09-07T08:01:49;102513.38;;;25.35;56.70
28797;BME280;24974;54.444;18.560;2023-09-07T08:04:21;102519.56;;;25.25;57.03
28797;BME280;24974;54.444;18.560;2023-09-07T08:06:51;102505.44;;;25.41;56.34
28797;BME280;24974;54.444;18.560;2023-09-07T08:09:26;102519.44;;;25.73;55.85
28797;BME280;24974;54.444;18.560;2023-09-07T08:11:58;102512.00;;;26.22;54.31
28797;BME280;24974;54.444;18.560;2023-09-07T08:14:34;102515.16;;;26.17;55.00
28797;BME280;24974;54.444;18.560;2023-09-07T08:17:07;102516.91;;;25.67;55.59
28797;BME280;24974;54.444;18.560;2023-09-07T08:19:38;102517.09;;;25.75;55.59
28797;BME280;24974;54.444;18.560;2023-09-07T08:22:09;102515.63;;;25.65;55.93
28797;BME280;24974;54.444;18.560;2023-09-07T08:24:40;102518.06;;;25.12;56.70
28797;BME280;24974;54.444;18.560;2023-09-07T08:27:13;102518.69;;;26.14;54.64
28797;BME280;24974;54.444;18.560;2023-09-07T08:29:50;102522.66;;;26.10;54.72
28797;BME280;24974;54.444;18.560;2023-09-07T08:32:22;102525.41;;;25.87;55.31
28797;BME280;24974;54.444;18.560;2023-09-07T08:34:53;102520.47;;;26.22;54.06
28797;BME280;24974;54.444;18.560;2023-09-07T08:37:31;102524.31;;;26.34;53.79
28797;BME280;24974;54.444;18.560;2023-09-07T08:40:04;102523.75;;;26.67;52.48
28797;BME280;24974;54.444;18.560;2023-09-07T08:42:38;102521.31;;;26.04;53.99
28797;BME280;24974;54.444;18.560;2023-09-07T08:45:13;102512.66;;;26.35;53.52
28797;BME280;24974;54.444;18.560;2023-09-07T08:47:46;102510.41;;;26.02;54.69
28797;BME280;24974;54.444;18.560;2023-09-07T08:50:17;102517.28;;;26.43;53.54
28797;BME280;24974;54.444;18.560;2023-09-07T08:52:51;102519.59;;;26.61;53.06
28797;BME280;24974;54.444;18.560;2023-09-07T08:55:23;102528.16;;;27.37;51.49
28797;BME280;24974;54.444;18.560;2023-09-07T08:57:54;102530.44;;;27.27;51.41
28797;BME280;24974;54.444;18.560;2023-09-07T09:00:25;102534.81;;;25.94;54.32
28797;BME280;24974;54.444;18.560;2023-09-07T09:02:56;102529.50;;;27.20;51.82
28797;BME280;24974;54.444;18.560;2023-09-07T09:05:28;102527.44;;;26.94;50.94
28797;BME280;24974;54.444;18.560;2023-09-07T09:08:04;102526.75;;;26.77;51.27
28797;BME280;24974;54.444;18.560;2023-09-07T09:10:38;102533.19;;;27.24;51.69
28797;BME280;24974;54.444;18.560;2023-09-07T09:13:10;102527.06;;;28.05;49.25
28797;BME280;24974;54.444;18.560;2023-09-07T09:15:41;102521.25;;;27.08;50.85
28797;BME280;24974;54.444;18.560;2023-09-07T09:18:12;102523.72;;;27.96;49.03
28797;BME280;24974;54.444;18.560;2023-09-07T09:20:44;102521.69;;;27.93;49.46
28797;BME280;24974;54.444;18.560;2023-09-07T09:23:14;102519.88;;;27.24;51.00
28797;BME280;24974;54.444;18.560;2023-09-07T09:25:47;102517.31;;;27.42;51.06
28797;BME280;24974;54.444;18.560;2023-09-07T09:28:18;102525.00;;;28.02;48.61
28797;BME280;24974;54.444;18.560;2023-09-07T09:30:49;102515.78;;;28.86;46.51
28797;BME280;24974;54.444;18.560;2023-09-07T09:33:20;102511.19;;;27.93;48.75
28797;BME280;24974;54.444;18.560;2023-09-07T09:35:53;102513.09;;;28.19;48.83
28797;BME280;24974;54.444;18.560;2023-09-07T09:38:25;102514.38;;;28.25;48.11
28797;BME280;24974;54.444;18.560;2023-09-07T09:40:56;102508.16;;;27.22;50.71
28797;BME280;24974;54.444;18.560;2023-09-07T09:43:26;102504.13;;;28.91;46.88
28797;BME280;24974;54.444;18.560;2023-09-07T09:46:00;102513.44;;;28.95;46.63
28797;BME280;24974;54.444;18.560;2023-09-07T09:48:31;102513.44;;;28.51;47.39
28797;BME280;24974;54.444;18.560;2023-09-07T09:51:03;102508.59;;;28.48;48.15
28797;BME280;24974;54.444;18.560;2023-09-07T09:53:34;102516.69;;;28.53;47.84
28797;BME280;24974;54.444;18.560;2023-09-07T09:56:06;102521.31;;;29.16;45.92
28797;BME280;24974;54.444;18.560;2023-09-07T09:58:37;102519.16;;;29.54;44.49
28797;BME280;24974;54.444;18.560;2023-09-07T10:01:09;102523.31;;;29.12;45.88
28797;BME280;24974;54.444;18.560;2023-09-07T10:03:44;102513.22;;;29.18;45.45
28797;BME280;24974;54.444;18.560;2023-09-07T10:06:22;102530.25;;;29.22;45.68
28797;BME280;24974;54.444;18.560;2023-09-07T10:09:03;102519.44;;;29.42;44.86
28797;BME280;24974;54.444;18.560;2023-09-07T10:11:38;102522.03;;;29.61;44.69
28797;BME280;24974;54.444;18.560;2023-09-07T10:14:09;102520.09;;;29.83;43.54
28797;BME280;24974;54.444;18.560;2023-09-07T10:16:49;102517.84;;;30.28;43.18
28797;BME280;24974;54.444;18.560;2023-09-07T10:19:21;102509.63;;;30.05;43.61
28797;BME280;24974;54.444;18.560;2023-09-07T10:21:54;102514.28;;;30.81;42.70
28797;BME280;24974;54.444;18.560;2023-09-07T10:24:27;102513.81;;;31.39;40.83
28797;BME280;24974;54.444;18.560;2023-09-07T10:27:06;102509.31;;;30.28;42.40
28797;BME280;24974;54.444;18.560;2023-09-07T10:29:45;102498.81;;;31.17;40.97
28797;BME280;24974;54.444;18.560;2023-09-07T10:32:16;102499.22;;;31.19;41.46
28797;BME280;24974;54.444;18.560;2023-09-07T10:34:47;102494.81;;;31.04;41.03
28797;BME280;24974;54.444;18.560;2023-09-07T10:37:18;102495.09;;;31.56;40.24
28797;BME280;24974;54.444;18.560;2023-09-07T10:39:50;102504.13;;;31.08;40.98
28797;BME280;24974;54.444;18.560;2023-09-07T10:42:24;102499.22;;;30.62;42.30
28797;BME280;24974;54.444;18.560;2023-09-07T10:44:55;102495.94;;;31.53;40.27
28797;BME280;24974;54.444;18.560;2023-09-07T10:47:26;102498.59;;;32.62;38.86
28797;BME280;24974;54.444;18.560;2023-09-07T10:49:57;102502.00;;;32.43;38.97
28797;BME280;24974;54.444;18.560;2023-09-07T10:52:28;102492.44;;;32.08;38.96
28797;BME280;24974;54.444;18.560;2023-09-07T10:54:59;102500.31;;;31.79;39.61
28797;BME280;24974;54.444;18.560;2023-09-07T10:57:30;102497.84;;;32.54;38.22
28797;BME280;24974;54.444;18.560;2023-09-07T11:00:01;102490.16;;;31.78;39.96
28797;BME280;24974;54.444;18.560;2023-09-07T11:02:33;102501.09;;;33.05;37.53
28797;BME280;24974;54.444;18.560;2023-09-07T11:05:05;102503.38;;;32.72;37.70
28797;BME280;24974;54.444;18.560;2023-09-07T11:07:37;102496.94;;;32.68;37.89
28797;BME280;24974;54.444;18.560;2023-09-07T11:10:12;102503.63;;;33.33;36.24
28797;BME280;24974;54.444;18.560;2023-09-07T11:12:43;102501.63;;;32.93;37.06
28797;BME280;24974;54.444;18.560;2023-09-07T11:15:13;102500.09;;;33.22;36.80
28797;BME280;24974;54.444;18.560;2023-09-07T11:17:46;102497.16;;;34.28;34.95
28797;BME280;24974;54.444;18.560;2023-09-07T11:20:21;102500.75;;;33.41;35.94
28797;BME280;24974;54.444;18.560;2023-09-07T11:22:52;102501.38;;;32.73;37.40
28797;BME280;24974;54.444;18.560;2023-09-07T11:25:22;102503.59;;;32.96;38.16
28797;BME280;24974;54.444;18.560;2023-09-07T11:27:53;102494.03;;;33.58;36.15
28797;BME280;24974;54.444;18.560;2023-09-07T11:30:25;102498.84;;;34.53;35.08
28797;BME280;24974;54.444;18.560;2023-09-07T11:33:07;102495.47;;;33.73;35.99
28797;BME280;24974;54.444;18.560;2023-09-07T11:35:38;102491.72;;;34.10;36.08
28797;BME280;24974;54.444;18.560;2023-09-07T11:38:12;102493.97;;;33.96;35.82
28797;BME280;24974;54.444;18.560;2023-09-07T11:40:44;102497.06;;;33.36;37.00
28797;BME280;24974;54.444;18.560;2023-09-07T11:43:16;102499.13;;;34.31;34.53
28797;BME280;24974;54.444;18.560;2023-09-07T11:45:49;102498.41;;;34.27;35.17
28797;BME280;24974;54.444;18.560;2023-09-07T11:48:20;102501.59;;;33.37;36.26
28797;BME280;24974;54.444;18.560;2023-09-07T11:50:51;102497.91;;;34.32;34.49
28797;BME280;24974;54.444;18.560;2023-09-07T11:53:22;102499.97;;;33.33;36.02
28797;BME280;24974;54.444;18.560;2023-09-07T11:55:53;102485.56;;;34.42;34.30
28797;BME280;24974;54.444;18.560;2023-09-07T11:58:24;102488.84;;;33.80;36.46
28797;BME280;24974;54.444;18.560;2023-09-07T12:00:56;102490.81;;;34.94;34.58
28797;BME280;24974;54.444;18.560;2023-09-07T12:03:27;102488.28;;;35.20;33.39
28797;BME280;24974;54.444;18.560;2023-09-07T12:06:00;102490.13;;;34.33;34.92
28797;BME280;24974;54.444;18.560;2023-09-07T12:08:31;102488.09;;;34.06;35.98
28797;BME280;24974;54.444;18.560;2023-09-07T12:11:02;102481.09;;;34.41;34.88
28797;BME280;24974;54.444;18.560;2023-09-07T12:13:33;102489.25;;;34.12;35.36
28797;BME280;24974;54.444;18.560;2023-09-07T12:16:03;102484.91;;;34.01;36.05
28797;BME280;24974;54.444;18.560;2023-09-07T12:18:34;102483.69;;;34.56;35.35
28797;BME280;24974;54.444;18.560;2023-09-07T12:21:05;102485.00;;;33.63;36.75
28797;BME280;24974;54.444;18.560;2023-09-07T12:23:35;102485.44;;;33.92;36.04
28797;BME280;24974;54.444;18.560;2023-09-07T12:26:06;102483.75;;;34.52;35.63
28797;BME280;24974;54.444;18.560;2023-09-07T12:28:37;102483.19;;;33.76;36.89
28797;BME280;24974;54.444;18.560;2023-09-07T12:31:08;102471.84;;;35.04;35.21
28797;BME280;24974;54.444;18.560;2023-09-07T12:33:38;102485.88;;;33.22;37.35
28797;BME280;24974;54.444;18.560;2023-09-07T12:36:09;102484.72;;;34.15;35.67
28797;BME280;24974;54.444;18.560;2023-09-07T12:38:41;102472.28;;;33.71;36.97
28797;BME280;24974;54.444;18.560;2023-09-07T12:41:12;102477.56;;;34.03;35.89
28797;BME280;24974;54.444;18.560;2023-09-07T12:43:43;102478.16;;;33.57;37.34
28797;BME280;24974;54.444;18.560;2023-09-07T12:46:14;102476.31;;;33.36;37.05
28797;BME280;24974;54.444;18.560;2023-09-07T12:48:45;102469.41;;;34.56;36.36
28797;BME280;24974;54.444;18.560;2023-09-07T12:51:16;102469.38;;;34.83;34.75
28797;BME280;24974;54.444;18.560;2023-09-07T12:53:47;102470.22;;;34.56;35.96
28797;BME280;24974;54.444;18.560;2023-09-07T12:56:17;102461.31;;;36.17;32.70
28797;BME280;24974;54.444;18.560;2023-09-07T12:58:50;102461.28;;;36.00;33.13
28797;BME280;24974;54.444;18.560;2023-09-07T13:01:22;102459.66;;;35.63;33.84
28797;BME280;24974;54.444;18.560;2023-09-07T13:03:53;102461.09;;;35.91;33.25